Terminal Aerodrome Forecast
Issued by NWS

Home | Current Version | Previous Version | Text Only | Print | Product List | Glossary On
Versions: 1 2 3 4 5 6 7 8 9 10 11 12 13 14 15 16 17 18 19 20
000
FTUS43 KGRB 251724
TAFRHI
TAF
KRHI 251724Z 2518/2618 18010G18KT P6SM VCSH BKN140
     FM251900 18010G19KT P6SM BKN120
     FM260000 19008KT P6SM BKN120 PROB30 2604/2608 4SM TSRA OVC025CB
     FM260800 21006KT P6SM OVC030 PROB30 2608/2610 4SM TSRA OVC007CB
     FM261000 22006KT P6SM OVC015 PROB30 2610/2612 4SM TSRA OVC007CB
     FM261400 24006KT P6SM OVC008
     FM261700 25006KT P6SM OVC010=

USA.gov is the U.S. government's official web portal to all federal, state and local government web resources and services.